Time;durP1;ratioP1;P1;durP2;ratioP2;P2;SDS_P1;SDS_P2;PMS_P1;PMS_P2;Temp;Humidity;BMP_temperature;BMP_pressure;BME280_temperature;BME280_humidity;BME280_pressure;Samples;Min_cycle;Max_cycle;Signal;HPM_P1;HPM_P2
2022/05/06 00:01:11;;;;;;;0.10;0.10;;;10.50;1.00;9.30;97740.00;;;;5052409;28;20209;-68
2022/05/06 00:03:40;;;;;;;0.10;0.10;;;10.50;1.00;9.40;97736.00;;;;5048942;28;20199;-68
2022/05/06 00:06:08;;;;;;;0.10;0.10;;;10.50;1.00;9.20;97720.00;;;;5049419;28;20210;-69
2022/05/06 00:08:36;;;;;;;0.10;0.10;;;10.40;1.00;9.00;97732.00;;;;5048541;28;20660;-69
2022/05/06 00:11:05;;;;;;;0.10;0.10;;;10.30;1.00;9.00;97726.00;;;;5052468;28;20218;-69
2022/05/06 00:13:33;;;;;;;0.00;0.00;;;10.20;1.00;9.00;97732.00;;;;5050084;28;20320;-68
2022/05/06 00:16:03;;;;;;;0.03;0.03;;;10.20;1.00;9.00;97734.00;;;;5052541;28;20234;-68
2022/05/06 00:18:32;;;;;;;0.10;0.10;;;10.10;1.00;9.00;97741.00;;;;5053352;28;20201;-68
2022/05/06 00:21:02;;;;;;;0.10;0.10;;;10.20;1.00;9.00;97745.00;;;;5052455;28;20202;-71
2022/05/06 00:23:30;;;;;;;0.10;0.10;;;10.10;1.00;9.00;97754.00;;;;5051658;28;20190;-71
2022/05/06 00:25:58;;;;;;;0.10;0.10;;;10.00;84.00;8.70;97735.00;;;;5052144;28;20215;-68
2022/05/06 00:28:26;;;;;;;0.10;0.10;;;9.70;99.90;8.40;97742.00;;;;5051626;28;20194;-68
2022/05/06 00:30:54;;;;;;;0.10;0.10;;;9.50;99.90;8.40;97728.00;;;;5049458;28;20730;-68
2022/05/06 00:33:24;;;;;;;0.00;0.00;;;9.40;99.90;8.40;97718.00;;;;5050839;28;20248;-68
2022/05/06 00:35:53;;;;;;;0.10;0.10;;;9.50;99.90;8.40;97739.00;;;;5043223;28;20591;-68
2022/05/06 00:38:23;;;;;;;0.10;0.10;;;9.50;99.90;8.50;97745.00;;;;5038085;28;20201;-68
2022/05/06 00:40:51;;;;;;;0.10;0.10;;;9.50;99.90;8.60;97743.00;;;;5043762;28;20198;-69
2022/05/06 00:43:20;;;;;;;0.10;0.10;;;9.70;99.90;8.60;97745.00;;;;5051213;28;20202;-68
2022/05/06 00:45:52;;;;;;;0.10;0.10;;;9.60;99.90;8.50;97749.00;;;;5053498;28;20222;-69
2022/05/06 00:48:25;;;;;;;0.10;0.10;;;9.60;99.90;8.60;97746.00;;;;5047556;28;20198;-69
2022/05/06 00:50:57;;;;;;;0.10;0.10;;;9.70;99.90;8.60;97747.00;;;;5052353;28;20271;-70
2022/05/06 00:53:27;;;;;;;0.10;0.10;;;9.70;99.90;8.60;97734.00;;;;5053323;28;20183;-69
2022/05/06 00:55:56;;;;;;;0.10;0.10;;;9.70;99.90;8.50;97739.00;;;;5053443;28;20875;-70
2022/05/06 00:58:29;;;;;;;0.10;0.10;;;9.70;99.90;8.40;97736.00;;;;5048576;28;20607;-69
2022/05/06 01:00:57;;;;;;;0.10;0.10;;;9.50;99.90;8.40;97731.00;;;;5066989;28;20211;-69
2022/05/06 01:03:25;;;;;;;0.10;0.10;;;9.50;99.90;8.60;97729.00;;;;5049905;28;20221;-69
2022/05/06 01:05:53;;;;;;;0.10;0.10;;;9.70;99.90;8.60;97736.00;;;;5048970;28;20727;-69
2022/05/06 01:08:22;;;;;;;0.10;0.10;;;9.70;99.90;8.50;97727.00;;;;5065597;28;20190;-69
2022/05/06 01:10:53;;;;;;;0.10;0.10;;;9.50;99.90;8.40;97724.00;;;;5040784;28;20306;-70
2022/05/06 01:13:21;;;;;;;0.10;0.10;;;9.40;99.90;8.30;97728.00;;;;5049030;28;20240;-69
2022/05/06 01:15:55;;;;;;;0.10;0.10;;;9.40;99.90;8.30;97725.00;;;;5056533;28;20802;-69
2022/05/06 01:18:28;;;;;;;0.10;0.10;;;9.30;99.90;8.20;97734.00;;;;5051484;28;20625;-68
2022/05/06 01:21:00;;;;;;;0.10;0.10;;;9.30;99.90;8.20;97746.00;;;;5042844;28;20202;-69
2022/05/06 01:23:29;;;;;;;0.00;0.00;;;9.30;99.90;8.10;97730.00;;;;5041613;28;20190;-68
2022/05/06 01:25:57;;;;;;;0.10;0.10;;;9.10;99.90;8.00;97732.00;;;;5065853;28;20294;-68
2022/05/06 01:28:28;;;;;;;0.10;0.10;;;9.10;99.90;8.10;97725.00;;;;5051187;28;20238;-70
2022/05/06 01:31:00;;;;;;;0.10;0.10;;;9.20;99.90;8.10;97728.00;;;;5066805;28;20210;-69
2022/05/06 01:33:31;;;;;;;0.10;0.10;;;9.20;99.90;8.00;97728.00;;;;5048603;28;20675;-69
2022/05/06 01:36:03;;;;;;;0.10;0.10;;;9.10;99.90;8.00;97739.00;;;;5047158;28;20222;-70
2022/05/06 01:38:38;;;;;;;0.00;0.00;;;9.00;99.90;7.80;97736.00;;;;5049384;28;20564;-68
2022/05/06 01:41:10;;;;;;;0.10;0.10;;;8.90;99.90;7.60;97748.00;;;;5049852;28;20656;-69
2022/05/06 01:43:59;;;;;;;0.10;0.10;;;8.60;1.00;7.40;97738.00;;;;5049733;28;20659;-69
2022/05/06 01:46:29;;;;;;;0.10;0.10;;;8.50;1.00;7.50;97712.00;;;;5040976;28;20213;-69
2022/05/06 01:49:03;;;;;;;0.10;0.10;;;8.50;1.00;7.50;97687.00;;;;5064922;28;20259;-69
2022/05/06 01:51:36;;;;;;;0.10;0.10;;;8.50;1.00;7.50;97624.00;;;;5042063;28;20221;-69
2022/05/06 01:54:10;;;;;;;0.10;0.10;;;8.60;1.00;7.40;97680.00;;;;5060195;28;20233;-70
2022/05/06 01:56:40;;;;;;;0.10;0.10;;;8.50;1.00;7.50;97659.00;;;;5049360;28;20286;-69
2022/05/06 01:59:09;;;;;;;0.10;0.10;;;8.50;1.00;7.60;97664.00;;;;5048645;28;20209;-69
2022/05/06 02:01:37;;;;;;;0.10;0.10;;;8.70;1.00;7.60;97661.00;;;;5049137;28;20198;-69
2022/05/06 02:06:53;;;;;;;0.10;0.10;;;8.90;1.00;7.80;97646.00;;;;5049167;28;20737;-70
2022/05/06 02:09:24;;;;;;;0.10;0.10;;;8.90;1.00;7.90;97648.00;;;;5049429;28;20561;-70
2022/05/06 02:11:56;;;;;;;0.10;0.10;;;9.00;99.90;7.80;97615.00;;;;5066225;28;20229;-70
2022/05/06 02:14:35;;;;;;;0.10;0.10;;;9.00;99.90;7.90;97647.00;;;;5049134;28;20726;-69
2022/05/06 02:17:30;;;;;;;0.10;0.10;;;9.00;99.90;7.80;97638.00;;;;5058017;28;20209;-69
2022/05/06 02:20:17;;;;;;;0.10;0.10;;;9.00;99.90;7.90;97665.00;;;;5051341;28;20205;-70
2022/05/06 02:22:54;;;;;;;0.10;0.10;;;9.10;99.90;7.80;97666.00;;;;5036560;28;20238;-71
2022/05/06 02:25:48;;;;;;;0.10;0.10;;;9.00;99.90;7.50;97664.00;;;;5045187;28;20210;-70
2022/05/06 02:28:20;;;;;;;0.10;0.10;;;8.80;99.90;7.40;97667.00;;;;5066205;28;20199;-70
2022/05/06 02:33:46;;;;;;;0.10;0.10;;;8.30;99.90;7.00;97674.00;;;;5054052;28;20618;-69
2022/05/06 02:36:20;;;;;;;0.10;0.10;;;8.10;1.00;7.00;97665.00;;;;5052726;28;20301;-69
2022/05/06 02:38:48;;;;;;;0.10;0.10;;;8.00;1.00;7.10;97663.00;;;;5053508;28;20945;-69
2022/05/06 02:41:18;;;;;;;0.10;0.10;;;8.10;1.00;7.10;97691.00;;;;5069395;28;20684;-72
2022/05/06 02:43:54;;;;;;;0.10;0.10;;;8.20;1.00;7.20;97677.00;;;;5043268;28;20206;-69
2022/05/06 02:46:25;;;;;;;0.10;0.10;;;8.30;1.00;7.20;97683.00;;;;5052759;28;20182;-70
2022/05/06 02:48:55;;;;;;;0.10;0.10;;;8.30;1.00;7.20;97693.00;;;;5069209;28;20190;-69
2022/05/06 02:51:23;;;;;;;0.10;0.10;;;8.20;1.00;7.10;97683.00;;;;5069171;28;20257;-69
2022/05/06 02:53:51;;;;;;;0.10;0.10;;;8.20;1.00;7.10;97701.00;;;;5052600;28;20190;-69
2022/05/06 02:56:26;;;;;;;0.10;0.10;;;8.10;1.00;7.00;97695.00;;;;5065618;28;20221;-69
2022/05/06 02:58:58;;;;;;;0.10;0.10;;;8.00;1.00;7.00;97701.00;;;;5063608;28;20206;-69
2022/05/06 03:01:30;;;;;;;0.10;0.10;;;8.00;1.00;6.90;97700.00;;;;5053317;28;20671;-69
2022/05/06 03:04:02;;;;;;;0.10;0.10;;;8.00;1.00;7.00;97697.00;;;;5069892;28;20198;-70
2022/05/06 03:06:32;;;;;;;0.10;0.10;;;8.10;1.00;7.00;97697.00;;;;5049127;28;20541;-70
2022/05/06 03:09:01;;;;;;;0.10;0.10;;;8.10;1.00;6.90;97692.00;;;;5058511;28;20218;-70
2022/05/06 03:11:35;;;;;;;0.10;0.10;;;8.00;1.00;6.90;97709.00;;;;5065658;28;20679;-69
2022/05/06 03:14:10;;;;;;;0.10;0.10;;;8.10;1.00;6.90;97694.00;;;;5068310;28;20663;-68
2022/05/06 03:16:47;;;;;;;0.10;0.10;;;8.00;1.00;7.00;97702.00;;;;5068747;28;20622;-68
2022/05/06 03:19:15;;;;;;;0.10;0.10;;;8.10;1.00;6.90;97703.00;;;;5069527;28;20271;-69
2022/05/06 03:21:43;;;;;;;0.10;0.10;;;7.90;1.00;6.90;97704.00;;;;5051844;28;20203;-70
2022/05/06 03:24:12;;;;;;;0.10;0.10;;;7.90;1.00;7.00;97710.00;;;;5034620;28;20675;-71
2022/05/06 03:26:42;;;;;;;0.10;0.10;;;8.10;1.00;7.00;97708.00;;;;5051254;28;20204;-71
2022/05/06 03:29:09;;;;;;;0.10;0.10;;;8.10;1.00;6.90;97709.00;;;;5048794;28;20206;-71
2022/05/06 03:31:39;;;;;;;0.10;0.10;;;8.00;1.00;7.00;97715.00;;;;5043019;28;20191;-70
2022/05/06 03:34:11;;;;;;;0.10;0.10;;;8.10;1.00;7.10;97699.00;;;;5046690;28;20659;-71
2022/05/06 03:36:45;;;;;;;0.10;0.10;;;8.30;99.90;7.10;97730.00;;;;5066489;28;20277;-70
2022/05/06 03:39:14;;;;;;;0.10;0.10;;;8.30;99.90;6.90;97719.00;;;;5050559;28;20719;-70
2022/05/06 03:41:50;;;;;;;0.10;0.10;;;8.10;99.90;6.80;97531.00;;;;5051781;28;20614;-69
2022/05/06 03:44:19;;;;;;;0.10;0.10;;;8.10;99.90;6.80;97713.00;;;;5051517;28;20225;-71
2022/05/06 03:46:51;;;;;;;0.10;0.10;;;8.00;99.90;6.80;97743.00;;;;5064460;28;20615;-70
2022/05/06 03:49:26;;;;;;;0.10;0.10;;;8.00;99.90;6.80;97751.00;;;;5048064;28;20671;-70
2022/05/06 03:51:54;;;;;;;0.10;0.10;;;7.90;99.90;6.70;97749.00;;;;5068586;28;20207;-71
2022/05/06 03:54:23;;;;;;;0.10;0.10;;;7.90;99.90;6.90;97749.00;;;;5068153;28;20215;-71
2022/05/06 03:56:53;;;;;;;0.10;0.10;;;8.00;1.00;7.10;97776.00;;;;5036268;28;20546;-70
2022/05/06 03:59:23;;;;;;;0.10;0.10;;;8.20;99.90;7.20;97775.00;;;;5066579;28;20206;-70
2022/05/06 04:02:00;;;;;;;0.10;0.10;;;8.20;99.90;7.00;97768.00;;;;5051584;28;20198;-70
2022/05/06 04:04:32;;;;;;;0.10;0.10;;;8.10;99.90;6.90;97780.00;;;;5052674;28;20214;-70
2022/05/06 04:07:05;;;;;;;0.10;0.10;;;8.00;99.90;7.00;97791.00;;;;5064956;28;20293;-69
2022/05/06 04:09:41;;;;;;;0.10;0.10;;;8.00;1.00;7.00;97803.00;;;;5057870;28;20414;-69
2022/05/06 04:12:12;;;;;;;0.10;0.10;;;8.00;1.00;7.00;97807.00;;;;5048883;28;20616;-70
2022/05/06 04:14:46;;;;;;;0.10;0.10;;;8.00;1.00;6.80;97793.00;;;;5053608;28;20241;-69
2022/05/06 04:17:16;;;;;;;0.10;0.10;;;7.90;89.30;6.80;97798.00;;;;5045349;28;20279;-70
2022/05/06 04:25:18;;;;;;;0.10;0.10;;;8.40;27.30;7.40;97811.00;;;;5059454;28;20291;-70
2022/05/06 04:27:50;;;;;;;0.10;0.10;;;8.40;80.90;7.30;97800.00;;;;5058162;28;20611;-70
2022/05/06 04:30:19;;;;;;;0.10;0.10;;;8.40;46.30;7.40;97816.00;;;;5057570;28;20209;-72
2022/05/06 04:33:07;;;;;;;0.10;0.10;;;8.40;40.90;7.40;97813.00;;;;5072288;28;20245;-71
2022/05/06 04:35:36;;;;;;;0.10;0.10;;;8.40;99.90;7.40;97803.00;;;;5052537;28;20309;-71
2022/05/06 04:38:08;;;;;;;0.10;0.10;;;8.40;99.90;7.50;97817.00;;;;5067557;28;20264;-72
2022/05/06 04:40:38;;;;;;;0.10;0.10;;;8.50;99.90;7.50;97813.00;;;;5067334;28;20202;-69
2022/05/06 04:43:08;;;;;;;0.10;0.10;;;8.50;99.90;7.50;97815.00;;;;5067424;28;20218;-68
2022/05/06 04:45:39;;;;;;;0.10;0.10;;;8.60;99.90;7.70;97826.00;;;;5049317;28;20230;-69
2022/05/06 04:48:11;;;;;;;0.10;0.10;;;8.70;99.90;7.80;97828.00;;;;5047044;28;20272;-70
2022/05/06 04:50:45;;;;;;;0.10;0.10;;;8.70;99.90;7.70;97827.00;;;;5064248;28;20221;-69
2022/05/06 04:53:15;;;;;;;0.10;0.10;;;8.70;99.90;7.70;97829.00;;;;5051801;28;20217;-69
2022/05/06 04:55:46;;;;;;;0.10;0.10;;;8.70;99.90;7.80;97833.00;;;;5068229;28;20557;-70
2022/05/06 04:58:19;;;;;;;0.10;0.10;;;8.80;99.90;7.80;97835.00;;;;5069646;28;20729;-70
2022/05/06 05:00:48;;;;;;;0.10;0.10;;;8.80;99.90;7.80;97830.00;;;;5069173;28;20221;-69
2022/05/06 05:03:20;;;;;;;0.08;0.08;;;8.80;99.90;7.70;97838.00;;;;5049437;28;20298;-70
2022/05/06 05:05:49;;;;;;;0.10;0.10;;;8.80;99.90;7.60;97841.00;;;;5069616;28;20249;-71
2022/05/06 05:08:18;;;;;;;0.10;0.10;;;8.70;99.90;7.70;97839.00;;;;5065422;28;20207;-70
2022/05/06 05:10:49;;;;;;;0.10;0.10;;;8.70;99.90;7.80;97842.00;;;;5047755;28;20198;-70
2022/05/06 05:13:20;;;;;;;0.10;0.10;;;8.80;99.90;7.80;97854.00;;;;5048105;28;20206;-70
2022/05/06 05:15:48;;;;;;;0.10;0.10;;;8.70;99.90;7.70;97853.00;;;;5068964;28;20222;-69
2022/05/06 05:18:16;;;;;;;0.00;0.00;;;8.60;99.90;7.50;97854.00;;;;5070736;28;20256;-70
2022/05/06 05:20:45;;;;;;;0.10;0.10;;;8.50;99.90;7.50;97860.00;;;;5054249;28;20195;-71
2022/05/06 05:23:13;;;;;;;0.10;0.10;;;8.50;99.90;7.50;97870.00;;;;5052639;28;20199;-70
2022/05/06 05:25:42;;;;;;;0.10;0.10;;;8.50;99.90;7.50;97858.00;;;;5040844;28;20225;-69
2022/05/06 05:28:14;;;;;;;0.10;0.10;;;8.50;99.90;7.50;97867.00;;;;5067577;28;20725;-72
2022/05/06 05:30:44;;;;;;;0.10;0.10;;;8.60;99.90;7.60;97857.00;;;;5068232;28;20580;-70
2022/05/06 05:33:12;;;;;;;0.10;0.10;;;8.60;99.90;7.60;97856.00;;;;5067287;28;20214;-70
2022/05/06 05:35:47;;;;;;;0.10;0.10;;;8.60;99.90;7.60;97864.00;;;;5048560;28;20214;-70
2022/05/06 05:38:16;;;;;;;0.10;0.10;;;8.70;99.90;7.80;97862.00;;;;5049913;28;20198;-71
2022/05/06 05:40:44;;;;;;;0.10;0.10;;;8.80;99.90;7.90;97863.00;;;;5040302;28;20276;-70
2022/05/06 05:48:45;;;;;;;0.00;0.00;;;9.00;99.90;8.00;97865.00;;;;5063014;28;20289;-70
2022/05/06 05:51:13;;;;;;;0.08;0.08;;;9.10;99.90;8.10;97859.00;;;;5050085;28;20206;-70
2022/05/06 05:53:50;;;;;;;0.10;0.10;;;9.10;99.90;8.10;97863.00;;;;5049341;28;20229;-70
2022/05/06 05:56:19;;;;;;;0.10;0.10;;;9.20;99.90;8.20;97867.00;;;;5059786;28;20237;-70
2022/05/06 05:58:49;;;;;;;0.10;0.10;;;9.30;99.90;8.30;97873.00;;;;5049848;28;20272;-70
2022/05/06 06:01:22;;;;;;;0.10;0.10;;;9.30;99.90;8.30;97866.00;;;;5067210;28;20201;-70
2022/05/06 06:03:50;;;;;;;0.10;0.10;;;9.30;99.90;8.20;97869.00;;;;5066646;28;20198;-70
2022/05/06 06:06:19;;;;;;;0.08;0.08;;;9.20;99.90;8.30;97882.00;;;;5048827;28;20580;-70
2022/05/06 06:08:51;;;;;;;0.10;0.10;;;9.30;99.90;8.40;97863.00;;;;5066361;28;20209;-69
2022/05/06 06:11:19;;;;;;;0.10;0.10;;;9.30;99.90;8.40;97876.00;;;;5051153;28;20194;-70
2022/05/06 06:13:50;;;;;;;0.10;0.10;;;9.40;99.90;8.50;97890.00;;;;5054135;28;20221;-71
2022/05/06 06:16:24;;;;;;;0.10;0.10;;;9.50;99.90;8.70;97882.00;;;;5069613;28;20574;-71
2022/05/06 06:18:52;;;;;;;0.03;0.03;;;9.70;99.90;8.70;97882.00;;;;5066384;28;20194;-71
2022/05/06 06:21:23;;;;;;;0.10;0.10;;;9.60;99.90;8.80;97886.00;;;;5066452;28;20216;-73
2022/05/06 06:23:52;;;;;;;0.10;0.10;;;9.80;99.90;8.90;97897.00;;;;5056873;28;20205;-70
2022/05/06 06:26:21;;;;;;;0.10;0.10;;;9.80;99.90;8.90;97887.00;;;;5046622;28;20246;-70
2022/05/06 06:28:50;;;;;;;0.10;0.10;;;9.90;99.90;9.00;97888.00;;;;5070011;28;20198;-70
2022/05/06 06:31:19;;;;;;;0.10;0.10;;;9.90;99.90;9.20;97894.00;;;;5053339;28;20671;-70
2022/05/06 06:33:50;;;;;;;0.10;0.10;;;10.10;99.90;9.30;97890.00;;;;5053418;28;20262;-70
2022/05/06 06:36:27;;;;;;;0.10;0.10;;;10.20;99.90;9.40;97891.00;;;;5069461;28;20679;-70
2022/05/06 06:38:57;;;;;;;0.10;0.10;;;10.30;99.90;9.50;97885.00;;;;5069509;28;20198;-69
2022/05/06 06:41:27;;;;;;;0.10;0.10;;;10.40;99.90;9.60;97897.00;;;;5056415;28;20277;-70
2022/05/06 06:43:56;;;;;;;0.10;0.10;;;10.50;99.90;9.80;97895.00;;;;5054383;28;20209;-71
2022/05/06 06:46:46;;;;;;;0.10;0.10;;;10.60;99.90;10.10;97897.00;;;;5052946;28;20576;-70
2022/05/06 06:49:28;;;;;;;0.10;0.10;;;10.90;99.90;10.30;97896.00;;;;5057683;28;20210;-70
2022/05/06 06:52:20;;;;;;;0.08;0.08;;;11.10;99.90;10.50;97903.00;;;;5058715;28;20194;-72
2022/05/06 06:54:47;;;;;;;0.10;0.10;;;11.30;99.90;10.70;97910.00;;;;5061174;28;20233;-70
2022/05/06 06:57:15;;;;;;;0.10;0.10;;;11.50;99.90;10.80;97903.00;;;;5053878;28;20199;-70
2022/05/06 06:59:43;;;;;;;0.00;0.00;;;11.60;99.90;10.80;97898.00;;;;5054318;28;20199;-70
2022/05/06 07:02:11;;;;;;;0.10;0.10;;;11.60;99.90;10.70;97909.00;;;;5051825;28;20213;-70
2022/05/06 07:04:41;;;;;;;0.10;0.10;;;11.80;99.90;11.20;97901.00;;;;5068693;28;20230;-70
2022/05/06 07:12:40;;;;;;;0.10;0.10;;;12.40;99.90;11.70;97909.00;;;;5053504;28;20202;-70
2022/05/06 07:15:08;;;;;;;0.10;0.10;;;12.50;99.90;11.90;97906.00;;;;5053761;28;20230;-70
2022/05/06 07:17:36;;;;;;;0.10;0.10;;;12.70;99.90;12.00;97909.00;;;;5052888;28;20194;-70
2022/05/06 07:20:07;;;;;;;0.10;0.10;;;12.80;99.90;12.20;97909.00;;;;5053730;28;20201;-70
2022/05/06 07:22:35;;;;;;;0.10;0.10;;;12.90;99.90;12.20;97906.00;;;;5052975;28;20690;-70
2022/05/06 07:25:04;;;;;;;0.10;0.10;;;13.00;99.90;12.40;97912.00;;;;5069515;28;20226;-69
2022/05/06 07:27:35;;;;;;;0.10;0.10;;;13.10;99.90;12.50;97912.00;;;;5045395;28;20202;-69
2022/05/06 07:30:06;;;;;;;0.10;0.10;;;13.20;99.90;12.60;97914.00;;;;5047803;28;20202;-69
2022/05/06 07:32:34;;;;;;;0.10;0.10;;;13.40;99.90;12.80;97914.00;;;;5051959;28;20672;-69
2022/05/06 07:35:02;;;;;;;0.10;0.10;;;13.50;99.90;12.90;97920.00;;;;5055705;28;20252;-69
2022/05/06 07:37:33;;;;;;;0.10;0.10;;;13.60;99.90;13.10;97921.00;;;;5040590;28;20567;-69
2022/05/06 07:40:04;;;;;;;0.00;0.00;;;13.80;99.90;13.00;97915.00;;;;5046098;28;20199;-70
2022/05/06 07:42:33;;;;;;;0.00;0.00;;;13.90;99.90;13.30;97919.00;;;;5047538;28;20199;-69
2022/05/06 07:45:01;;;;;;;0.10;0.10;;;14.00;99.90;13.50;97922.00;;;;5067756;28;20218;-70
2022/05/06 07:47:30;;;;;;;0.10;0.10;;;14.10;99.90;13.60;97926.00;;;;5051940;28;20198;-69
2022/05/06 07:50:18;;;;;;;0.05;0.05;;;14.30;99.90;13.70;97915.00;;;;5052609;28;20218;-69
2022/05/06 07:52:50;;;;;;;0.03;0.03;;;14.40;99.90;13.80;97914.00;;;;5049399;28;20198;-69
2022/05/06 07:55:19;;;;;;;0.00;0.00;;;14.50;99.90;14.00;97915.00;;;;5053687;28;20240;-70
2022/05/06 07:57:48;;;;;;;0.08;0.08;;;14.60;99.90;14.10;97919.00;;;;5052908;28;20200;-69
2022/05/06 08:00:19;;;;;;;0.10;0.10;;;14.80;99.90;14.40;97920.00;;;;5052833;28;20194;-73
2022/05/06 08:05:33;;;;;;;0.10;0.10;;;15.10;99.90;14.60;97922.00;;;;5051819;28;20222;-69
2022/05/06 08:08:03;;;;;;;0.10;0.10;;;15.20;99.90;14.80;97910.00;;;;5052846;28;20199;-69
2022/05/06 08:10:32;;;;;;;0.10;0.10;;;15.40;99.90;15.00;97915.00;;;;5053281;28;20679;-70
2022/05/06 08:13:01;;;;;;;0.00;0.00;;;15.50;99.90;15.10;97919.00;;;;5053901;28;20217;-71
2022/05/06 08:15:30;;;;;;;0.00;0.00;;;15.70;99.90;15.30;97918.00;;;;5052170;28;20233;-71
2022/05/06 08:17:58;;;;;;;0.00;0.00;;;15.90;99.90;15.50;97926.00;;;;5052231;28;20702;-70
2022/05/06 08:20:27;;;;;;;0.10;0.10;;;16.10;99.90;15.60;97918.00;;;;5052044;28;20202;-71
2022/05/06 08:22:55;;;;;;;0.00;0.00;;;16.20;99.90;15.80;97896.00;;;;5052607;28;20199;-70
2022/05/06 08:25:24;;;;;;;0.10;0.10;;;16.40;99.90;15.90;97929.00;;;;5052167;28;20587;-70
2022/05/06 08:28:02;;;;;;;0.10;0.10;;;16.50;99.90;16.00;97929.00;;;;5052439;28;20675;-70
2022/05/06 08:30:30;;;;;;;0.00;0.00;;;16.60;99.90;16.10;97928.00;;;;5052258;28;20214;-69
2022/05/06 08:32:58;;;;;;;0.00;0.00;;;16.60;99.90;16.20;97922.00;;;;5049988;28;20877;-71
2022/05/06 08:35:26;;;;;;;0.10;0.10;;;16.70;99.90;16.50;97935.00;;;;5049333;28;20237;-69
2022/05/06 08:37:54;;;;;;;0.03;0.03;;;17.00;99.90;16.60;97934.00;;;;5044634;28;20233;-69
2022/05/06 08:40:26;;;;;;;0.00;0.00;;;17.10;99.90;16.70;97940.00;;;;5046348;28;20206;-69
2022/05/06 08:42:54;;;;;;;0.00;0.00;;;17.20;99.90;16.80;97939.00;;;;5051677;28;20202;-69
2022/05/06 08:50:55;;;;;;;0.00;0.00;;;17.40;99.90;16.90;97926.00;;;;5065216;28;20210;-69
2022/05/06 08:53:26;;;;;;;0.00;0.00;;;17.50;99.90;17.00;97938.00;;;;5050252;28;20205;-71
2022/05/06 08:55:58;;;;;;;0.00;0.00;;;17.60;99.90;17.20;97897.00;;;;5046267;28;20695;-69
2022/05/06 08:58:31;;;;;;;0.00;0.00;;;17.70;99.90;17.30;97939.00;;;;5052168;28;20660;-72
2022/05/06 09:01:06;;;;;;;0.00;0.00;;;17.90;99.90;17.40;97932.00;;;;5052810;28;20210;-72
2022/05/06 09:03:44;;;;;;;0.00;0.00;;;17.90;99.90;17.30;97934.00;;;;5052055;28;20190;-70
2022/05/06 09:06:20;;;;;;;0.00;0.00;;;17.90;99.90;17.40;97935.00;;;;5051275;28;20210;-71
2022/05/06 09:08:56;;;;;;;0.00;0.00;;;17.90;99.90;17.40;97926.00;;;;5052615;28;20197;-70
2022/05/06 09:14:16;;;;;;;0.00;0.00;;;17.90;99.90;17.20;97942.00;;;;5050850;28;20217;-70
2022/05/06 09:16:46;;;;;;;0.00;0.00;;;17.90;99.90;17.40;97944.00;;;;5051834;28;20217;-70
2022/05/06 09:19:20;;;;;;;0.00;0.00;;;17.90;99.90;17.40;97940.00;;;;5052858;28;20198;-70
2022/05/06 09:22:05;;;;;;;0.00;0.00;;;18.00;99.90;17.40;97946.00;;;;5051732;28;20369;-69
2022/05/06 09:24:34;;;;;;;0.00;0.00;;;18.00;99.90;17.30;97952.00;;;;5050799;28;20229;-71
2022/05/06 09:27:06;;;;;;;0.00;0.00;;;17.90;99.90;17.10;97939.00;;;;5050583;28;20202;-70
2022/05/06 09:29:37;;;;;;;0.00;0.00;;;17.90;99.90;17.20;97941.00;;;;5049678;28;20328;-71
2022/05/06 09:32:23;;;;;;;0.00;0.00;;;17.80;99.90;17.20;97950.00;;;;5043611;28;20199;-69
2022/05/06 09:34:53;;;;;;;0.00;0.00;;;17.80;99.90;17.20;97952.00;;;;5047577;28;20228;-69
2022/05/06 09:37:37;;;;;;;0.00;0.00;;;17.80;99.90;17.30;97936.00;;;;5050296;28;20198;-69
2022/05/06 09:40:09;;;;;;;0.00;0.00;;;17.80;99.90;17.30;97950.00;;;;5051123;28;20190;-69
2022/05/06 09:42:41;;;;;;;0.00;0.00;;;17.90;99.70;17.40;97952.00;;;;5050620;28;20205;-69
2022/05/06 09:45:13;;;;;;;0.00;0.00;;;17.90;99.10;17.40;97948.00;;;;5050973;28;20222;-70
2022/05/06 09:47:42;;;;;;;0.00;0.00;;;17.90;99.80;17.60;97959.00;;;;5050554;28;20201;-70
2022/05/06 09:50:11;;;;;;;0.00;0.00;;;18.10;99.10;17.60;97961.00;;;;5051325;28;20233;-69
2022/05/06 09:52:39;;;;;;;0.03;0.03;;;18.20;98.70;17.70;97954.00;;;;5050053;28;20207;-70
2022/05/06 09:55:09;;;;;;;0.00;0.00;;;18.30;98.70;17.80;97952.00;;;;5050441;28;20214;-70
2022/05/06 09:57:39;;;;;;;0.00;0.00;;;18.30;98.30;17.90;97942.00;;;;5050298;28;20767;-69
2022/05/06 10:00:08;;;;;;;0.00;0.00;;;18.40;98.30;18.00;97949.00;;;;5051254;28;20607;-71
2022/05/06 10:02:38;;;;;;;0.00;0.00;;;18.50;98.60;18.20;97945.00;;;;5050793;28;20198;-69
2022/05/06 10:05:10;;;;;;;0.00;0.00;;;18.60;98.30;18.40;97961.00;;;;5051643;28;20250;-69
2022/05/06 10:07:44;;;;;;;0.00;0.00;;;18.80;98.30;18.30;97946.00;;;;5052323;28;20818;-70
2022/05/06 10:10:21;;;;;;;0.00;0.00;;;18.80;98.50;18.40;97954.00;;;;5052682;28;20194;-69
2022/05/06 10:12:57;;;;;;;0.00;0.00;;;18.90;98.70;18.60;97957.00;;;;5044234;28;20253;-69
2022/05/06 10:15:28;;;;;;;0.00;0.00;;;19.00;98.20;18.70;97955.00;;;;5050879;28;20221;-70
2022/05/06 10:17:59;;;;;;;0.00;0.00;;;19.20;97.70;18.80;97954.00;;;;5034971;28;20199;-70
2022/05/06 10:20:51;;;;;;;0.00;0.00;;;19.20;97.70;18.60;97959.00;;;;5050692;28;20193;-70
2022/05/06 10:23:21;;;;;;;0.00;0.00;;;19.30;97.80;18.10;97910.00;;;;5050960;28;20191;-70
2022/05/06 10:25:57;;;;;;;0.00;0.00;;;19.00;97.30;18.00;97874.00;;;;5051137;28;20234;-70
2022/05/06 10:34:30;;;;;;;0.00;0.00;;;19.10;97.80;19.10;97951.00;;;;5040576;28;20218;-70
2022/05/06 10:37:02;;;;;;;0.00;0.00;;;19.40;97.10;19.30;97950.00;;;;5050260;28;21033;-72
2022/05/06 10:39:37;;;;;;;0.00;0.00;;;19.60;97.10;19.30;97967.00;;;;5050587;28;20198;-70
2022/05/06 10:42:08;;;;;;;0.00;0.00;;;19.70;97.10;19.40;97957.00;;;;5053576;28;20198;-70
2022/05/06 10:44:39;;;;;;;0.00;0.00;;;19.90;97.40;19.10;97957.00;;;;5053879;28;20218;-70
2022/05/06 10:47:50;;;;;;;0.00;0.00;;;19.70;96.70;19.70;97952.00;;;;5067520;28;20197;-70
2022/05/06 10:50:21;;;;;;;0.00;0.00;;;20.00;96.70;20.00;97948.00;;;;5057709;28;20575;-70
2022/05/06 10:52:57;;;;;;;0.00;0.00;;;20.30;96.60;19.90;97930.00;;;;5051027;28;20664;-70
2022/05/06 10:55:26;;;;;;;0.00;0.00;;;20.30;95.60;19.90;97918.00;;;;5050356;28;20557;-71
2022/05/06 10:58:07;;;;;;;0.00;0.00;;;20.30;95.80;20.20;97937.00;;;;5049851;28;20198;-73
2022/05/06 11:00:42;;;;;;;0.00;0.00;;;20.60;94.70;20.40;97933.00;;;;5050494;28;20218;-71
2022/05/06 11:03:15;;;;;;;0.00;0.00;;;20.70;94.50;20.40;97932.00;;;;5053464;28;20595;-70
2022/05/06 11:05:43;;;;;;;0.00;0.00;;;20.80;94.60;20.40;97934.00;;;;5046792;28;20229;-71
2022/05/06 11:08:15;;;;;;;0.00;0.00;;;20.80;95.00;20.10;97930.00;;;;5053703;28;20641;-71
2022/05/06 11:10:43;;;;;;;0.00;0.00;;;20.60;95.40;20.00;97928.00;;;;5050177;28;20210;-71
2022/05/06 11:13:31;;;;;;;0.00;0.00;;;20.50;95.70;20.40;97930.00;;;;5053752;28;20202;-70
2022/05/06 11:16:09;;;;;;;0.00;0.00;;;20.70;95.10;20.70;97942.00;;;;5053251;28;20272;-71
2022/05/06 11:18:43;;;;;;;0.00;0.00;;;20.90;94.80;20.80;97938.00;;;;5053650;28;20237;-70
2022/05/06 11:21:22;;;;;;;0.00;0.00;;;21.00;94.30;20.90;97936.00;;;;5054091;28;20583;-70
2022/05/06 11:23:50;;;;;;;0.00;0.00;;;21.20;93.90;21.10;97948.00;;;;5053199;28;20194;-71
2022/05/06 11:26:25;;;;;;;0.00;0.00;;;21.30;93.30;20.60;97938.00;;;;5052711;28;20241;-71
2022/05/06 11:29:02;;;;;;;0.00;0.00;;;21.20;93.60;20.90;97936.00;;;;5047006;28;20198;-71
2022/05/06 11:31:31;;;;;;;0.00;0.00;;;21.20;93.20;20.80;97922.00;;;;5051795;28;20221;-71
2022/05/06 11:34:04;;;;;;;0.00;0.00;;;21.20;93.70;20.80;97919.00;;;;5053694;28;20248;-71
2022/05/06 11:36:32;;;;;;;0.00;0.00;;;21.10;93.80;21.00;97924.00;;;;5052947;28;20264;-71
2022/05/06 11:39:11;;;;;;;0.00;0.00;;;21.20;94.30;21.10;97918.00;;;;5053311;28;20202;-71
2022/05/06 11:41:39;;;;;;;0.00;0.00;;;21.50;94.10;21.40;97935.00;;;;5052870;28;20730;-71
2022/05/06 11:44:07;;;;;;;0.00;0.00;;;21.60;94.20;21.50;97923.00;;;;5057365;28;20206;-70
2022/05/06 11:49:26;;;;;;;0.00;0.00;;;21.80;93.40;21.20;97918.00;;;;5057709;28;20199;-71
2022/05/06 11:51:56;;;;;;;0.00;0.00;;;21.60;93.60;21.20;97922.00;;;;5055331;28;20680;-70
2022/05/06 11:54:26;;;;;;;0.00;0.00;;;21.60;93.20;21.50;97919.00;;;;5053106;28;20218;-70
2022/05/06 11:56:55;;;;;;;0.00;0.00;;;21.70;93.00;21.30;97904.00;;;;5067470;28;20218;-71
2022/05/06 11:59:23;;;;;;;0.00;0.00;;;21.80;92.00;21.50;97916.00;;;;5052448;28;20186;-71
2022/05/06 12:01:52;;;;;;;0.00;0.00;;;21.80;92.40;21.50;97915.00;;;;5052369;28;20190;-71
2022/05/06 12:04:31;;;;;;;0.00;0.00;;;21.80;92.40;21.10;97910.00;;;;5052323;28;20210;-71
2022/05/06 12:07:00;;;;;;;0.00;0.00;;;21.60;92.30;21.50;97916.00;;;;5052476;28;20601;-71